Upstream stations:
Downstream station:
SHEF ID: OSOK1 Oswego hwy 160
STATION TYPE:
PRECIP STAGE RIV-FLOW VOLTAGE BAT-LOAD
in ft cfs volt volt
Ccp-Rev Ccp-Rev Ccp-Rev Ccp-Rev Ccp-Rev
(US/Central)
04/01 00:00 0.00 17.64 9603 12.65 12.49
04/01 01:00 0.00 17.64 9603 12.65 12.49
04/01 02:00 0.00 17.65 9617 12.57 12.49
04/01 03:00 0.00 17.65 9617 12.65 12.49
04/01 04:00 0.00 17.66 9631 12.57 12.41
04/01 05:00 0.00 17.62 9575 12.57 12.41
04/01 06:00 0.00 17.60 9548 12.57 12.41
04/01 07:00 0.00 17.57 9506 12.57 12.41
04/01 08:00 0.00 17.57 9506 12.73 12.49
04/01 09:00 0.00 17.54 9464 13.21 13.05
04/01 10:00 0.00 17.54 9464 13.13 12.97
04/01 11:00 0.00 17.49 9395 13.29 12.89
04/01 12:00 0.00 17.48 9381 13.44 12.81
04/01 13:00 0.00 17.46 9353 13.44 13.44
04/01 14:00 0.00 17.44 9326 13.44 13.21
04/01 15:00 0.00 17.43 9312 13.37 13.29
04/01 16:00 0.00 17.42 9298 13.37 12.65
04/01 17:00 0.00 17.41 9284 13.53 12.65
04/01 18:00 0.00 17.35 9201 13.44 12.65
04/01 19:00 0.00 17.34 9188 12.73 12.57
04/01 20:00 0.00 17.33 9174 12.65 12.57
04/01 21:00 0.00 17.30 9133 12.65 12.57
04/01 22:00 0.00 17.26 9078 12.65 12.49
04/01 23:00 ---- ---- ---- ---- ----